F/V Cyriaque — FHDS — position and weather

sailwx.info

Track history (hours):
 
Tides and Currents Weather Stations Pressure Air Temp Water Temp Dewpoint Dewpoint Depression Visibility Wind Speed Wind Dir Waves Ship Positions

F/V Cyriaque

Last reported at 2018-Jun-21 07:06 UTC. Time now 2018-Jun-21 12:20 UTC.
Position N 46°53' W 002°43'.

Length 20 m; draft 3.5 m.

Type: Fishing. MMSI: 228235000.

Date/timePositionNaut miles runAvg speedWind from/ knotsBaromVisibWave heightAir tempDewpointWater temp
2018-Jun-21 07:06N 46°53' W 002°43'1 3.2
2018-Jun-21 06:55N 46°53' W 002°43'5 3.1
2018-Jun-21 05:21N 46°49' W 002°38'2 3.0
2018-Jun-21 04:50N 46°48' W 002°36'1 3.1
2018-Jun-21 04:30N 46°47' W 002°35'2 3.2
2018-Jun-21 04:01N 46°47' W 002°33'2 3.7
2018-Jun-21 03:31N 46°47' W 002°30'1 2.3
2018-Jun-21 03:00N 46°46' W 002°30'2 3.2
2018-Jun-21 02:31N 46°45' W 002°32'2 3.1
2018-Jun-21 02:01N 46°43' W 002°33'2 2.9
2018-Jun-21 01:26N 46°44' W 002°35'1 3.2
2018-Jun-21 01:00N 46°46' W 002°34'2 3.8
2018-Jun-21 00:30N 46°46' W 002°31'0 0.6
2018-Jun-21 00:00N 46°46' W 002°31'1 2.8
2018-Jun-20 23:30N 46°45' W 002°33'1 2.7
2018-Jun-20 23:01N 46°44' W 002°35'1 2.2
2018-Jun-20 22:28N 46°43' W 002°33'2 3.4
2018-Jun-20 22:00N 46°45' W 002°32'17 1.1
2018-Jun-20 07:18N 46°59' W 002°45'1 3.3
2018-Jun-20 06:53N 46°58' W 002°44'4 2.3
2018-Jun-20 04:56N 46°57' W 002°38'2 3.4
2018-Jun-20 04:28N 46°58' W 002°36'2 3.5
2018-Jun-20 03:50N 46°60' W 002°33'2 3.7
2018-Jun-20 03:21N 47°01' W 002°31'1 4.0
2018-Jun-20 02:59N 47°02' W 002°29'1 2.4
2018-Jun-20 02:31N 47°02' W 002°28'2 3.4
2018-Jun-20 02:00N 47°01' W 002°30'2 3.5
2018-Jun-20 01:30N 47°00' W 002°32'2 3.4
2018-Jun-20 01:00N 46°59' W 002°34'2 3.3
2018-Jun-20 00:30N 46°58' W 002°36'2 3.3
2018-Jun-19 23:55N 46°57' W 002°38'2 3.4
2018-Jun-19 23:25N 46°56' W 002°40'7 2.5
2018-Jun-19 20:27N 46°59' W 002°50'2 3.1
2018-Jun-19 19:40N 46°59' W 002°53'6 2.2
2018-Jun-19 17:10N 46°60' W 003°01'1 3.3
2018-Jun-19 17:00N 47°00' W 003°02'3 3.3
2018-Jun-19 16:08N 47°03' W 003°04'2 3.4
2018-Jun-19 15:27N 47°05' W 003°05'2 3.6
2018-Jun-19 14:55N 47°07' W 003°05'1 1.4
2018-Jun-19 14:29N 47°07' W 003°05'2 3.3
2018-Jun-19 13:57N 47°06' W 003°05'2 3.0
2018-Jun-19 13:26N 47°04' W 003°04'2 3.5
2018-Jun-19 12:59N 47°05' W 003°02'3 3.5
2018-Jun-19 12:12N 47°06' W 002°58'1 3.6
2018-Jun-19 11:55N 47°06' W 002°57'3 3.7
2018-Jun-19 11:05N 47°08' W 002°53'1 2.5
2018-Jun-19 10:52N 47°08' W 002°52'1 2.0
2018-Jun-19 10:23N 47°08' W 002°51'2 3.5
2018-Jun-19 09:57N 47°06' W 002°49'2 3.3
2018-Jun-19 09:26N 47°05' W 002°50'2 3.3
2018-Jun-19 08:49N 47°03' W 002°52'1 3.3
2018-Jun-19 08:29N 47°02' W 002°53'2 3.2
2018-Jun-19 07:53N 47°01' W 002°51'1 3.2
2018-Jun-19 07:26N 46°60' W 002°50'10 3.1
2018-Jun-19 04:05N 46°51' W 002°41'1 3.4
2018-Jun-19 03:50N 46°51' W 002°40'26 2.5
2018-Jun-18 17:26N 46°34' W 002°10'4 9.5
2018-Jun-18 17:01N 46°31' W 002°06'5 9.6
2018-Jun-18 16:31N 46°28' W 002°01'5 9.3
2018-Jun-18 16:00N 46°25' W 001°55'5 9.5
2018-Jun-18 15:30N 46°23' W 001°50'5 9.4
2018-Jun-18 15:01N 46°20' W 001°44'5 9.6
2018-Jun-18 14:31N 46°16' W 001°41'5 9.9
2018-Jun-18 14:00N 46°12' W 001°37'5 9.5
2018-Jun-18 13:31N 46°09' W 001°31'5 9.6
2018-Jun-18 13:01N 46°07' W 001°25'510.2
2018-Jun-18 12:31N 46°07' W 001°17'4 7.2
2018-Jun-18 12:01N 46°09' W 001°13'0 0.0
2018-Jun-18 11:31N 46°09' W 001°13'0 0.0
2018-Jun-18 11:01N 46°09' W 001°13'0 0.0
2018-Jun-18 10:31N 46°09' W 001°13'0 0.0
2018-Jun-18 10:01N 46°09' W 001°13'0 0.1
2018-Jun-18 09:31N 46°09' W 001°13'0 0.0
2018-Jun-18 09:00N 46°09' W 001°13'0 0.0
2018-Jun-18 08:31N 46°09' W 001°13'0 0.0
2018-Jun-18 08:01N 46°09' W 001°13'0 0.0
2018-Jun-18 07:31N 46°09' W 001°13'0 0.0
2018-Jun-18 07:01N 46°09' W 001°13'0 0.0
2018-Jun-18 06:31N 46°09' W 001°13'0 0.2
2018-Jun-18 06:01N 46°09' W 001°13'0 0.2
2018-Jun-18 05:30N 46°09' W 001°13'0 0.0
2018-Jun-18 05:00N 46°09' W 001°13'0 0.0
2018-Jun-18 04:31N 46°09' W 001°13'0 0.0
2018-Jun-18 04:00N 46°09' W 001°13'0 0.0
2018-Jun-18 03:31N 46°09' W 001°13'0 0.0
2018-Jun-18 03:00N 46°09' W 001°13'0 0.0
2018-Jun-18 02:31N 46°09' W 001°13'0 0.0
2018-Jun-18 02:00N 46°09' W 001°13'0 0.0
2018-Jun-18 01:31N 46°09' W 001°13'0 0.0
2018-Jun-18 01:01N 46°09' W 001°13'0 0.0
2018-Jun-18 00:31N 46°09' W 001°13'0 0.0
2018-Jun-18 00:01N 46°09' W 001°13'0 0.1
2018-Jun-17 23:31N 46°09' W 001°13'0 0.0
2018-Jun-17 23:01N 46°09' W 001°13'0 0.0
2018-Jun-17 22:30N 46°09' W 001°13'0 0.2
2018-Jun-17 22:01N 46°09' W 001°13'0 0.0
2018-Jun-17 21:31N 46°09' W 001°13'3 6.9
2018-Jun-17 21:00N 46°07' W 001°17'4 8.3
2018-Jun-17 20:31N 46°08' W 001°23'4 8.8
2018-Jun-17 20:00N 46°09' W 001°29'5 9.4
2018-Jun-17 19:30N 46°11' W 001°36'10 9.8
2018-Jun-17 18:30N 46°14' W 001°49'11 5.9
2018-Jun-17 16:37N 46°18' W 002°04'2 8.9
2018-Jun-17 16:26N 46°18' W 002°02'2 4.1
2018-Jun-17 16:00N 46°19' W 001°59'2 3.6
2018-Jun-17 15:29N 46°18' W 001°57'2 3.3
2018-Jun-17 14:49N 46°19' W 001°60'1 2.6
2018-Jun-17 14:27N 46°19' W 002°01'2 3.7
2018-Jun-17 14:00N 46°20' W 002°03'2 3.7
2018-Jun-17 13:31N 46°20' W 002°06'2 3.7
2018-Jun-17 12:59N 46°21' W 002°09'27 0.6
2018-Jun-15 14:42N 46°01' W 001°42'1 3.3
2018-Jun-15 14:29N 46°01' W 001°41'1 1.8
2018-Jun-15 14:00N 46°00' W 001°40'6 2.1
2018-Jun-15 11:23N 46°03' W 001°46'1 3.5
2018-Jun-15 10:59N 46°03' W 001°45'2 3.9
2018-Jun-15 10:26N 46°01' W 001°42'1 1.2
2018-Jun-15 10:00N 46°01' W 001°41'2 3.3
2018-Jun-15 09:20N 46°02' W 001°44'1 3.4
2018-Jun-15 08:57N 46°03' W 001°46'4 1.2
2018-Jun-15 05:37N 46°02' W 001°41'0 3.5
2018-Jun-15 05:30N 46°01' W 001°40'1 0.1
2018-Jun-14 18:06N 46°01' W 001°41'0 3.3
2018-Jun-14 17:59N 46°01' W 001°41'2 3.4
2018-Jun-14 17:30N 46°00' W 001°39'2 3.3
2018-Jun-14 16:58N 45°60' W 001°36'1 2.3
2018-Jun-14 16:29N 45°59' W 001°35'1 0.4
2018-Jun-14 14:58N 45°59' W 001°36'2 3.2
2018-Jun-14 14:28N 45°58' W 001°34'2 1.8
2018-Jun-14 13:08N 45°59' W 001°37'0 2.5
2018-Jun-14 13:00N 45°59' W 001°38'1 1.0
2018-Jun-14 11:38N 45°60' W 001°38'1 3.2
2018-Jun-14 11:21N 45°60' W 001°37'1 3.4
2018-Jun-14 11:00N 45°59' W 001°35'2 3.4
2018-Jun-14 10:26N 45°58' W 001°34'3 0.8
2018-Jun-14 06:22N 45°58' W 001°38'2 4.0
2018-Jun-14 05:53N 45°59' W 001°36'2 5.6
2018-Jun-14 05:29N 46°01' W 001°33'510.0
2018-Jun-14 05:00N 46°03' W 001°28'5 9.8
2018-Jun-14 04:30N 46°06' W 001°21'5 9.6
2018-Jun-14 04:00N 46°08' W 001°15'1 3.0
2018-Jun-14 03:30N 46°09' W 001°13'0 0.0
2018-Jun-14 03:00N 46°09' W 001°13'0 0.3
2018-Jun-14 02:30N 46°09' W 001°13'0 0.0
2018-Jun-14 02:00N 46°09' W 001°13'0 0.0
2018-Jun-14 01:30N 46°09' W 001°13'2 4.3
2018-Jun-14 01:00N 46°07' W 001°16'4 9.0
2018-Jun-14 00:30N 46°06' W 001°21'510.6
2018-Jun-14 00:00N 46°03' W 001°28'510.2
2018-Jun-13 23:30N 46°00' W 001°34'2 2.6
2018-Jun-13 22:42N 45°59' W 001°37'1 3.2
2018-Jun-13 22:30N 45°59' W 001°36'2 3.4
2018-Jun-13 21:58N 45°58' W 001°34'7 2.9
2018-Jun-13 19:30N 45°57' W 001°44'3 6.1
2018-Jun-13 19:00N 45°57' W 001°48'  
Track history (hours):
 
Tides and Currents Weather Stations Pressure Air Temp Water Temp Dewpoint Dewpoint Depression Visibility Wind Speed Wind Dir Waves Ship Positions

F/V Cyriaque

Last reported at 2018-Jun-21 07:06 UTC. Time now 2018-Jun-21 12:20 UTC.
Position N 46°53' W 002°43'.

Length 20 m; draft 3.5 m.

Type: Fishing. MMSI: 228235000.

Date/timePositionNaut miles runAvg speedWind from/ knotsBaromVisibWave heightAir tempDewpointWater temp
2018-Jun-21 07:06N 46°53' W 002°43'1 3.2
2018-Jun-21 06:55N 46°53' W 002°43'5 3.1
2018-Jun-21 05:21N 46°49' W 002°38'2 3.0
2018-Jun-21 04:50N 46°48' W 002°36'1 3.1
2018-Jun-21 04:30N 46°47' W 002°35'2 3.2
2018-Jun-21 04:01N 46°47' W 002°33'2 3.7
2018-Jun-21 03:31N 46°47' W 002°30'1 2.3
2018-Jun-21 03:00N 46°46' W 002°30'2 3.2
2018-Jun-21 02:31N 46°45' W 002°32'2 3.1
2018-Jun-21 02:01N 46°43' W 002°33'2 2.9
2018-Jun-21 01:26N 46°44' W 002°35'1 3.2
2018-Jun-21 01:00N 46°46' W 002°34'2 3.8
2018-Jun-21 00:30N 46°46' W 002°31'0 0.6
2018-Jun-21 00:00N 46°46' W 002°31'1 2.8
2018-Jun-20 23:30N 46°45' W 002°33'1 2.7
2018-Jun-20 23:01N 46°44' W 002°35'1 2.2
2018-Jun-20 22:28N 46°43' W 002°33'2 3.4
2018-Jun-20 22:00N 46°45' W 002°32'17 1.1
2018-Jun-20 07:18N 46°59' W 002°45'1 3.3
2018-Jun-20 06:53N 46°58' W 002°44'4 2.3
2018-Jun-20 04:56N 46°57' W 002°38'2 3.4
2018-Jun-20 04:28N 46°58' W 002°36'2 3.5
2018-Jun-20 03:50N 46°60' W 002°33'2 3.7
2018-Jun-20 03:21N 47°01' W 002°31'1 4.0
2018-Jun-20 02:59N 47°02' W 002°29'1 2.4
2018-Jun-20 02:31N 47°02' W 002°28'2 3.4
2018-Jun-20 02:00N 47°01' W 002°30'2 3.5
2018-Jun-20 01:30N 47°00' W 002°32'2 3.4
2018-Jun-20 01:00N 46°59' W 002°34'2 3.3
2018-Jun-20 00:30N 46°58' W 002°36'2 3.3
2018-Jun-19 23:55N 46°57' W 002°38'2 3.4
2018-Jun-19 23:25N 46°56' W 002°40'7 2.5
2018-Jun-19 20:27N 46°59' W 002°50'2 3.1
2018-Jun-19 19:40N 46°59' W 002°53'6 2.2
2018-Jun-19 17:10N 46°60' W 003°01'1 3.3
2018-Jun-19 17:00N 47°00' W 003°02'3 3.3
2018-Jun-19 16:08N 47°03' W 003°04'2 3.4
2018-Jun-19 15:27N 47°05' W 003°05'2 3.6
2018-Jun-19 14:55N 47°07' W 003°05'1 1.4
2018-Jun-19 14:29N 47°07' W 003°05'2 3.3
2018-Jun-19 13:57N 47°06' W 003°05'2 3.0
2018-Jun-19 13:26N 47°04' W 003°04'2 3.5
2018-Jun-19 12:59N 47°05' W 003°02'3 3.5
2018-Jun-19 12:12N 47°06' W 002°58'1 3.6
2018-Jun-19 11:55N 47°06' W 002°57'3 3.7
2018-Jun-19 11:05N 47°08' W 002°53'1 2.5
2018-Jun-19 10:52N 47°08' W 002°52'1 2.0
2018-Jun-19 10:23N 47°08' W 002°51'2 3.5
2018-Jun-19 09:57N 47°06' W 002°49'2 3.3
2018-Jun-19 09:26N 47°05' W 002°50'2 3.3
2018-Jun-19 08:49N 47°03' W 002°52'1 3.3
2018-Jun-19 08:29N 47°02' W 002°53'2 3.2
2018-Jun-19 07:53N 47°01' W 002°51'1 3.2
2018-Jun-19 07:26N 46°60' W 002°50'10 3.1
2018-Jun-19 04:05N 46°51' W 002°41'1 3.4
2018-Jun-19 03:50N 46°51' W 002°40'26 2.5
2018-Jun-18 17:26N 46°34' W 002°10'4 9.5
2018-Jun-18 17:01N 46°31' W 002°06'5 9.6
2018-Jun-18 16:31N 46°28' W 002°01'5 9.3
2018-Jun-18 16:00N 46°25' W 001°55'5 9.5
2018-Jun-18 15:30N 46°23' W 001°50'5 9.4
2018-Jun-18 15:01N 46°20' W 001°44'5 9.6
2018-Jun-18 14:31N 46°16' W 001°41'5 9.9
2018-Jun-18 14:00N 46°12' W 001°37'5 9.5
2018-Jun-18 13:31N 46°09' W 001°31'5 9.6
2018-Jun-18 13:01N 46°07' W 001°25'510.2
2018-Jun-18 12:31N 46°07' W 001°17'4 7.2
2018-Jun-18 12:01N 46°09' W 001°13'0 0.0
2018-Jun-18 11:31N 46°09' W 001°13'0 0.0
2018-Jun-18 11:01N 46°09' W 001°13'0 0.0
2018-Jun-18 10:31N 46°09' W 001°13'0 0.0
2018-Jun-18 10:01N 46°09' W 001°13'0 0.1
2018-Jun-18 09:31N 46°09' W 001°13'0 0.0
2018-Jun-18 09:00N 46°09' W 001°13'0 0.0
2018-Jun-18 08:31N 46°09' W 001°13'0 0.0
2018-Jun-18 08:01N 46°09' W 001°13'0 0.0
2018-Jun-18 07:31N 46°09' W 001°13'0 0.0
2018-Jun-18 07:01N 46°09' W 001°13'0 0.0
2018-Jun-18 06:31N 46°09' W 001°13'0 0.2
2018-Jun-18 06:01N 46°09' W 001°13'0 0.2
2018-Jun-18 05:30N 46°09' W 001°13'0 0.0
2018-Jun-18 05:00N 46°09' W 001°13'0 0.0
2018-Jun-18 04:31N 46°09' W 001°13'0 0.0
2018-Jun-18 04:00N 46°09' W 001°13'0 0.0
2018-Jun-18 03:31N 46°09' W 001°13'0 0.0
2018-Jun-18 03:00N 46°09' W 001°13'0 0.0
2018-Jun-18 02:31N 46°09' W 001°13'0 0.0
2018-Jun-18 02:00N 46°09' W 001°13'0 0.0
2018-Jun-18 01:31N 46°09' W 001°13'0 0.0
2018-Jun-18 01:01N 46°09' W 001°13'0 0.0
2018-Jun-18 00:31N 46°09' W 001°13'0 0.0
2018-Jun-18 00:01N 46°09' W 001°13'0 0.1
2018-Jun-17 23:31N 46°09' W 001°13'0 0.0
2018-Jun-17 23:01N 46°09' W 001°13'0 0.0
2018-Jun-17 22:30N 46°09' W 001°13'0 0.2
2018-Jun-17 22:01N 46°09' W 001°13'0 0.0
2018-Jun-17 21:31N 46°09' W 001°13'3 6.9
2018-Jun-17 21:00N 46°07' W 001°17'4 8.3
2018-Jun-17 20:31N 46°08' W 001°23'4 8.8
2018-Jun-17 20:00N 46°09' W 001°29'5 9.4
2018-Jun-17 19:30N 46°11' W 001°36'10 9.8
2018-Jun-17 18:30N 46°14' W 001°49'11 5.9
2018-Jun-17 16:37N 46°18' W 002°04'2 8.9
2018-Jun-17 16:26N 46°18' W 002°02'2 4.1
2018-Jun-17 16:00N 46°19' W 001°59'2 3.6
2018-Jun-17 15:29N 46°18' W 001°57'2 3.3
2018-Jun-17 14:49N 46°19' W 001°60'1 2.6
2018-Jun-17 14:27N 46°19' W 002°01'2 3.7
2018-Jun-17 14:00N 46°20' W 002°03'2 3.7
2018-Jun-17 13:31N 46°20' W 002°06'2 3.7
2018-Jun-17 12:59N 46°21' W 002°09'27 0.6
2018-Jun-15 14:42N 46°01' W 001°42'1 3.3
2018-Jun-15 14:29N 46°01' W 001°41'1 1.8
2018-Jun-15 14:00N 46°00' W 001°40'6 2.1
2018-Jun-15 11:23N 46°03' W 001°46'1 3.5
2018-Jun-15 10:59N 46°03' W 001°45'2 3.9
2018-Jun-15 10:26N 46°01' W 001°42'1 1.2
2018-Jun-15 10:00N 46°01' W 001°41'2 3.3
2018-Jun-15 09:20N 46°02' W 001°44'1 3.4
2018-Jun-15 08:57N 46°03' W 001°46'4 1.2
2018-Jun-15 05:37N 46°02' W 001°41'0 3.5
2018-Jun-15 05:30N 46°01' W 001°40'1 0.1
2018-Jun-14 18:06N 46°01' W 001°41'0 3.3
2018-Jun-14 17:59N 46°01' W 001°41'2 3.4
2018-Jun-14 17:30N 46°00' W 001°39'2 3.3
2018-Jun-14 16:58N 45°60' W 001°36'1 2.3
2018-Jun-14 16:29N 45°59' W 001°35'1 0.4
2018-Jun-14 14:58N 45°59' W 001°36'2 3.2
2018-Jun-14 14:28N 45°58' W 001°34'2 1.8
2018-Jun-14 13:08N 45°59' W 001°37'0 2.5
2018-Jun-14 13:00N 45°59' W 001°38'1 1.0
2018-Jun-14 11:38N 45°60' W 001°38'1 3.2
2018-Jun-14 11:21N 45°60' W 001°37'1 3.4
2018-Jun-14 11:00N 45°59' W 001°35'2 3.4
2018-Jun-14 10:26N 45°58' W 001°34'3 0.8
2018-Jun-14 06:22N 45°58' W 001°38'2 4.0
2018-Jun-14 05:53N 45°59' W 001°36'2 5.6
2018-Jun-14 05:29N 46°01' W 001°33'510.0
2018-Jun-14 05:00N 46°03' W 001°28'5 9.8
2018-Jun-14 04:30N 46°06' W 001°21'5 9.6
2018-Jun-14 04:00N 46°08' W 001°15'1 3.0
2018-Jun-14 03:30N 46°09' W 001°13'0 0.0
2018-Jun-14 03:00N 46°09' W 001°13'0 0.3
2018-Jun-14 02:30N 46°09' W 001°13'0 0.0
2018-Jun-14 02:00N 46°09' W 001°13'0 0.0
2018-Jun-14 01:30N 46°09' W 001°13'2 4.3
2018-Jun-14 01:00N 46°07' W 001°16'4 9.0
2018-Jun-14 00:30N 46°06' W 001°21'510.6
2018-Jun-14 00:00N 46°03' W 001°28'510.2
2018-Jun-13 23:30N 46°00' W 001°34'2 2.6
2018-Jun-13 22:42N 45°59' W 001°37'1 3.2
2018-Jun-13 22:30N 45°59' W 001°36'2 3.4
2018-Jun-13 21:58N 45°58' W 001°34'7 2.9
2018-Jun-13 19:30N 45°57' W 001°44'3 6.1
2018-Jun-13 19:00N 45°57' W 001°48'  

Dump ship's entire track history